TimeCDT,TemperatureF,Dew PointF,Humidity,Sea Level PressureIn,VisibilityMPH,Wind Direction,Wind SpeedMPH,Gust SpeedMPH,PrecipitationIn,Events,Conditions,WindDirDegrees,DateUTC
12:52 AM,30.9,24.1,76,30.15,10.0,Calm,Calm,-,N/A,,Clear,0,2013-04-20 05:52:00
1:52 AM,30.9,23.0,72,30.16,10.0,Calm,Calm,-,N/A,,Clear,0,2013-04-20 06:52:00
2:52 AM,28.9,23.0,78,30.17,10.0,Calm,Calm,-,N/A,,Scattered Clouds,0,2013-04-20 07:52:00
3:52 AM,27.0,24.1,89,30.18,10.0,North,4.6,-,N/A,,Scattered Clouds,10,2013-04-20 08:52:00
4:52 AM,26.1,23.0,88,30.20,10.0,North,4.6,-,N/A,,Mostly Cloudy,350,2013-04-20 09:52:00
5:52 AM,27.0,23.0,85,30.21,10.0,Calm,Calm,-,N/A,,Mostly Cloudy,0,2013-04-20 10:52:00
6:52 AM,23.0,21.0,92,30.24,10.0,Calm,Calm,-,N/A,,Scattered Clouds,0,2013-04-20 11:52:00
7:52 AM,30.0,25.0,82,30.26,10.0,Calm,Calm,-,N/A,,Scattered Clouds,0,2013-04-20 12:52:00
8:52 AM,33.1,23.0,66,30.28,10.0,Variable,3.5,-,N/A,,Mostly Cloudy,0,2013-04-20 13:52:00
9:52 AM,33.1,18.0,54,30.30,10.0,East,6.9,-,N/A,,Mostly Cloudy,100,2013-04-20 14:52:00
10:52 AM,35.1,19.0,52,30.30,10.0,ESE,5.8,-,N/A,,Overcast,120,2013-04-20 15:52:00
11:52 AM,37.0,16.0,42,30.30,10.0,East,5.8,-,N/A,,Overcast,100,2013-04-20 16:52:00
12:52 PM,39.9,15.1,36,30.27,10.0,ESE,8.1,-,N/A,,Overcast,120,2013-04-20 17:52:00
1:52 PM,42.1,17.1,37,30.25,10.0,SE,11.5,-,N/A,,Overcast,130,2013-04-20 18:52:00
2:52 PM,44.1,18.0,35,30.22,10.0,SE,13.8,-,N/A,,Overcast,140,2013-04-20 19:52:00
3:52 PM,46.9,18.0,32,30.20,10.0,East,15.0,-,N/A,,Overcast,100,2013-04-20 20:52:00
4:52 PM,48.0,19.9,33,30.19,10.0,ESE,12.7,-,N/A,,Overcast,110,2013-04-20 21:52:00
5:52 PM,48.9,19.0,31,30.18,10.0,SE,15.0,19.6,N/A,,Overcast,140,2013-04-20 22:52:00
6:52 PM,46.9,21.0,36,30.18,10.0,SE,15.0,-,N/A,,Overcast,140,2013-04-20 23:52:00
7:52 PM,46.9,21.9,37,30.16,10.0,ESE,16.1,-,N/A,,Overcast,120,2013-04-21 00:52:00
8:52 PM,46.0,24.1,42,30.18,10.0,SE,11.5,-,N/A,,Mostly Cloudy,130,2013-04-21 01:52:00
9:52 PM,45.0,25.0,46,30.18,10.0,ESE,16.1,-,N/A,,Mostly Cloudy,120,2013-04-21 02:52:00
10:52 PM,44.1,26.1,49,30.18,10.0,SE,13.8,-,N/A,,Mostly Cloudy,140,2013-04-21 03:52:00
11:52 PM,45.0,27.0,49,30.16,10.0,SE,15.0,-,N/A,,Overcast,140,2013-04-21 04:52:00